Time;durP1;ratioP1;P1;durP2;ratioP2;P2;SDS_P1;SDS_P2;PMS_P1;PMS_P2;Temp;Humidity;BMP_temperature;BMP_pressure;BME280_temperature;BME280_humidity;BME280_pressure;Samples;Min_cycle;Max_cycle;Signal;HPM_P1;HPM_P2
2021/01/18 00:03:39;;;;;;;1999.90;999.90;;;;;;;-1.18;68.29;101683.28;15619515;28;20041;-61
2021/01/18 00:11:16;;;;;;;1999.90;999.90;;;;;;;-1.30;68.95;101668.72;15619664;28;20049;-60
2021/01/18 00:18:52;;;;;;;1999.90;999.90;;;;;;;-1.54;69.87;101665.03;15602171;28;20049;-60
2021/01/18 00:26:35;;;;;;;1999.90;999.90;;;;;;;-1.42;69.32;101656.88;15592397;28;20042;-62
2021/01/18 00:34:12;;;;;;;1999.90;999.90;;;;;;;-1.44;68.91;101653.53;15597185;28;20046;-64
2021/01/18 00:41:45;;;;;;;1999.90;999.90;;;;;;;-1.51;69.83;101645.41;15597355;28;20061;-62
2021/01/18 00:49:18;;;;;;;1999.90;999.90;;;;;;;-1.71;70.12;101641.25;15619464;28;20128;-62
2021/01/18 00:56:52;;;;;;;1999.90;999.90;;;;;;;-1.90;70.65;101633.03;15598628;28;20509;-60
2021/01/18 01:04:38;;;;;;;1999.90;999.90;;;;;;;-2.09;70.72;101631.34;15597771;28;20084;-64
2021/01/18 01:12:10;;;;;;;1999.90;999.90;;;;;;;-1.84;69.59;101631.31;15583934;28;20053;-62
2021/01/18 01:19:42;;;;;;;1999.90;999.90;;;;;;;-1.67;69.49;101634.25;15558307;28;20049;-64
2021/01/18 01:27:15;;;;;;;1999.90;999.90;;;;;;;-1.73;69.74;101622.31;15592280;28;20046;-59
2021/01/18 01:34:48;;;;;;;;;;;;;;;-1.54;68.83;101628.63;15571507;28;20056;-62
2021/01/18 01:42:23;;;;;;;1999.90;999.90;;;;;;;-1.97;69.66;101621.34;15582900;28;19953;-60
2021/01/18 01:49:55;;;;;;;1999.90;999.90;;;;;;;-2.03;70.54;101625.00;15608338;28;20514;-60
2021/01/18 01:57:29;;;;;;;1999.90;999.90;;;;;;;-1.87;69.96;101610.72;15581795;28;20053;-60
2021/01/18 02:05:12;;;;;;;1999.90;999.90;;;;;;;-1.93;69.23;101608.03;15589263;28;20505;-60
2021/01/18 02:12:45;;;;;;;1999.90;999.90;;;;;;;-2.13;70.65;101606.38;15614685;28;20057;-60
2021/01/18 02:20:50;;;;;;;1999.90;999.90;;;;;;;-1.99;70.49;101589.81;15573218;28;20418;-59
2021/01/18 02:28:34;;;;;;;1999.90;999.90;;;;;;;-2.25;71.25;101586.31;15611210;28;20050;-59
2021/01/18 02:36:15;;;;;;;1999.90;999.90;;;;;;;-2.05;71.60;101589.66;15593838;28;20056;-60
2021/01/18 02:43:50;;;;;;;1999.90;999.90;;;;;;;-2.23;71.72;101575.16;15613090;28;20115;-60
2021/01/18 02:51:23;;;;;;;1999.90;999.90;;;;;;;-2.43;72.48;101572.63;15600598;28;20041;-60
2021/01/18 02:58:57;;;;;;;1999.90;999.90;;;;;;;-2.16;72.09;101570.44;15622765;28;20052;-58
2021/01/18 03:06:37;;;;;;;1999.90;999.90;;;;;;;-2.02;71.62;101571.94;15622440;28;20049;-60
2021/01/18 03:14:12;;;;;;;1999.90;999.90;;;;;;;-1.77;69.96;101571.88;15615381;28;20132;-61
2021/01/18 03:21:46;;;;;;;1999.90;999.90;;;;;;;-1.79;70.45;101571.25;15604995;28;20045;-61
2021/01/18 03:29:17;;;;;;;;;;;;;;;-1.55;69.91;101570.31;15622212;28;20046;-63
2021/01/18 03:36:50;;;;;;;1999.90;999.90;;;;;;;-1.70;69.59;101575.34;15604618;28;19920;-63
2021/01/18 03:44:21;;;;;;;1999.90;999.90;;;;;;;-1.71;69.75;101573.66;15620205;28;20041;-62
2021/01/18 03:51:54;;;;;;;1999.90;999.90;;;;;;;-1.97;71.28;101582.22;15602916;28;20144;-61
2021/01/18 03:59:25;;;;;;;1999.90;999.90;;;;;;;-1.27;68.70;101577.88;15612190;28;20136;-61
2021/01/18 04:06:58;;;;;;;1999.90;999.90;;;;;;;-1.94;71.62;101581.75;15594218;28;20068;-60
2021/01/18 04:14:30;;;;;;;1999.90;999.90;;;;;;;-1.84;70.64;101555.53;15614058;28;20091;-60
2021/01/18 04:22:06;;;;;;;1999.90;999.90;;;;;;;-2.03;72.04;101556.59;15661991;22;20132;-55
2021/01/18 04:29:37;;;;;;;1999.90;999.90;;;;;;;-1.62;70.35;101547.66;15679768;28;20029;-57
2021/01/18 04:37:10;;;;;;;1999.90;999.90;;;;;;;-1.80;70.58;101545.78;15677648;28;20041;-59
2021/01/18 04:44:42;;;;;;;1999.90;999.90;;;;;;;-1.63;70.08;101545.97;15647249;28;20482;-58
2021/01/18 04:52:17;;;;;;;1999.90;999.90;;;;;;;-1.70;70.05;101550.69;15636545;28;20120;-59
2021/01/18 04:59:49;;;;;;;1999.90;999.90;;;;;;;-1.74;69.99;101544.03;15648796;28;20091;-58
2021/01/18 05:07:45;;;;;;;1999.90;999.90;;;;;;;-1.72;70.57;101554.75;15624668;28;20049;-57
2021/01/18 05:15:17;;;;;;;1999.90;999.90;;;;;;;-1.86;71.53;101540.41;15654695;28;20046;-57
2021/01/18 05:22:51;;;;;;;1999.90;999.90;;;;;;;-1.62;70.14;101544.09;15624340;28;20449;-57
2021/01/18 05:30:24;;;;;;;1999.90;999.90;;;;;;;-1.23;69.54;101537.19;15603296;28;20044;-60
2021/01/18 05:37:56;;;;;;;;;;;;;;;-1.35;69.99;101552.75;15648864;28;20093;-58
2021/01/18 05:45:30;;;;;;;1999.90;999.90;;;;;;;-1.27;69.46;101544.19;15616160;28;19951;-58
2021/01/18 05:53:23;;;;;;;1999.90;999.90;;;;;;;-1.24;69.20;101558.25;15671071;28;20502;-57
2021/01/18 06:00:57;;;;;;;1999.90;999.90;;;;;;;-1.12;69.30;101530.88;15626616;28;20565;-59
2021/01/18 06:08:53;;;;;;;1999.90;999.90;;;;;;;-1.12;69.28;101533.63;15657157;28;20095;-57
2021/01/18 06:16:26;;;;;;;1999.90;999.90;;;;;;;-0.80;68.04;101541.53;15620596;28;20103;-56
2021/01/18 06:24:15;;;;;;;1999.90;999.90;;;;;;;-0.87;68.56;101542.47;15651543;28;20041;-61
2021/01/18 06:31:48;;;;;;;1999.90;999.90;;;;;;;-0.78;68.50;101545.69;15636395;28;20129;-54
2021/01/18 06:39:27;;;;;;;1999.90;999.90;;;;;;;-0.67;67.74;101555.81;15664672;28;20048;-61
2021/01/18 06:47:00;;;;;;;1999.90;999.90;;;;;;;-0.76;68.21;101567.38;15651321;28;20033;-56
2021/01/18 06:54:37;;;;;;;1999.90;999.90;;;;;;;-0.82;69.36;101569.19;15628375;28;20086;-55
2021/01/18 07:02:23;;;;;;;1999.90;999.90;;;;;;;-0.68;69.36;101575.25;15622989;28;20065;-56
2021/01/18 07:09:56;;;;;;;1999.90;999.90;;;;;;;-0.47;68.04;101580.16;15604306;28;20041;-55
2021/01/18 07:17:50;;;;;;;1999.90;999.90;;;;;;;-0.41;68.76;101581.09;15622660;28;20394;-59
2021/01/18 07:25:23;;;;;;;1999.90;999.90;;;;;;;-0.62;68.51;101571.56;15599742;28;20569;-55
2021/01/18 07:33:05;;;;;;;1999.90;999.90;;;;;;;-0.57;69.02;101566.19;15600051;28;20045;-59
2021/01/18 07:40:37;;;;;;;1999.90;999.90;;;;;;;-0.55;68.78;101568.69;15600773;28;20053;-58
2021/01/18 07:48:11;;;;;;;;;;;;;;;-0.52;69.20;101562.72;15600163;28;20045;-58
2021/01/18 07:55:43;;;;;;;1999.90;999.90;;;;;;;-0.55;69.61;101561.31;15598257;28;19921;-56
2021/01/18 08:03:25;;;;;;;1999.90;999.90;;;;;;;-0.35;69.10;101569.16;15589904;28;20048;-59
2021/01/18 08:11:01;;;;;;;;;;;;;;;-0.62;70.71;101572.41;15597551;28;20045;-59
2021/01/18 08:18:59;;;;;;;1999.90;999.90;;;;;;;-0.62;70.50;101558.69;15649334;28;571657;-60
2021/01/18 08:27:00;;;;;;;1999.90;999.90;;;;;;;-0.29;69.57;101557.25;15649958;28;20079;-57
2021/01/18 08:34:38;;;;;;;1999.90;999.90;;;;;;;-0.34;70.63;101551.63;15660180;28;20357;-61
2021/01/18 08:42:23;;;;;;;1999.90;999.90;;;;;;;-0.11;69.66;101548.00;15695530;28;20489;-54
2021/01/18 08:50:16;;;;;;;1999.90;999.90;;;;;;;0.09;68.82;101562.16;15639568;28;20534;-57
2021/01/18 08:57:52;;;;;;;1999.90;999.90;;;;;;;0.33;68.71;101554.69;15614884;28;20107;-58
2021/01/18 09:05:25;;;;;;;1999.90;999.90;;;;;;;0.38;68.72;101548.47;15613684;28;20111;-58
2021/01/18 09:13:03;;;;;;;1999.90;999.90;;;;;;;0.36;69.31;101547.88;15596013;28;20052;-57
2021/01/18 09:20:39;;;;;;;1999.90;999.90;;;;;;;0.57;69.10;101542.53;15613664;28;20060;-57
2021/01/18 09:28:12;;;;;;;1999.90;999.90;;;;;;;0.79;68.42;101550.06;15612738;28;20074;-57
2021/01/18 09:35:46;;;;;;;1999.90;999.90;;;;;;;0.72;69.48;101554.84;15675300;28;20082;-56
2021/01/18 09:43:20;;;;;;;1999.90;999.90;;;;;;;0.94;69.97;101538.47;15674053;28;20063;-58
2021/01/18 09:51:02;;;;;;;1999.90;999.90;;;;;;;1.16;69.09;101542.19;15674198;28;20079;-52
2021/01/18 09:58:36;;;;;;;1999.90;999.90;;;;;;;0.77;69.47;101536.56;15676558;28;20270;-57
2021/01/18 10:06:15;;;;;;;1999.90;999.90;;;;;;;1.30;68.76;101534.41;15657508;28;20129;-56
2021/01/18 10:14:00;;;;;;;1999.90;999.90;;;;;;;1.32;69.43;101521.22;15656097;28;20462;-57
2021/01/18 10:21:36;;;;;;;1999.90;999.90;;;;;;;1.44;69.03;101519.22;15677025;22;20044;-64
2021/01/18 10:29:09;;;;;;;1999.90;999.90;;;;;;;1.34;68.92;101522.63;15681704;28;20048;-64
2021/01/18 10:36:46;;;;;;;1999.90;999.90;;;;;;;1.31;69.43;101517.66;15719593;28;20049;-64
2021/01/18 10:44:21;;;;;;;1999.90;999.90;;;;;;;1.47;69.41;101513.22;15710009;28;20102;-64
2021/01/18 10:52:02;;;;;;;1999.90;999.90;;;;;;;2.26;67.75;101508.16;15735525;28;20062;-64
2021/01/18 10:59:34;;;;;;;1999.90;999.90;;;;;;;1.96;68.51;101522.41;15736828;28;20098;-64
2021/01/18 11:07:11;;;;;;;1999.90;999.90;;;;;;;2.16;68.78;101519.06;15706667;28;20048;-63
2021/01/18 11:14:43;;;;;;;1999.90;999.90;;;;;;;2.41;68.76;101504.75;15710426;28;20094;-62
2021/01/18 11:22:15;;;;;;;1999.90;999.90;;;;;;;2.39;68.49;101492.31;15749389;28;20098;-63
2021/01/18 11:29:47;;;;;;;1999.90;999.90;;;;;;;2.44;69.02;101495.13;15690256;28;20417;-64
2021/01/18 11:37:19;;;;;;;1999.90;999.90;;;;;;;2.26;70.63;101486.13;15710219;28;20064;-64
2021/01/18 11:44:51;;;;;;;1999.90;999.90;;;;;;;2.43;70.66;101477.78;15706078;28;20044;-61
2021/01/18 11:52:24;;;;;;;1999.90;999.90;;;;;;;2.41;71.41;101474.47;15763595;28;20045;-64
2021/01/18 11:59:56;;;;;;;1999.90;999.90;;;;;;;2.88;70.62;101466.31;15731176;28;20037;-63
2021/01/18 12:07:28;;;;;;;1999.90;999.90;;;;;;;2.76;70.93;101451.06;15667317;28;20128;-62
2021/01/18 12:15:00;;;;;;;1999.90;999.90;;;;;;;2.93;71.21;101448.19;15699012;28;20055;-63
2021/01/18 12:22:32;;;;;;;1999.90;999.90;;;;;;;2.88;71.51;101437.94;15717964;28;20098;-64
2021/01/18 12:30:05;;;;;;;1999.90;999.90;;;;;;;3.35;70.88;101417.84;15706298;28;20075;-64
2021/01/18 12:37:38;;;;;;;1999.90;999.90;;;;;;;3.44;70.88;101402.44;15695903;28;20072;-63
2021/01/18 12:45:10;;;;;;;1999.90;999.90;;;;;;;3.56;70.71;101407.72;15683359;28;20072;-64
2021/01/18 12:52:46;;;;;;;1999.90;999.90;;;;;;;3.87;70.25;101403.16;15662948;28;20052;-63
2021/01/18 13:00:18;;;;;;;1999.90;999.90;;;;;;;4.24;69.79;101380.84;15691004;28;20041;-62
2021/01/18 13:07:51;;;;;;;1999.90;999.90;;;;;;;4.44;69.00;101377.25;15734939;28;20488;-62
2021/01/18 13:15:23;;;;;;;1999.90;999.90;;;;;;;4.51;69.02;101370.38;15713979;28;20483;-62
2021/01/18 13:22:55;;;;;;;1999.90;999.90;;;;;;;4.49;69.69;101367.06;15657057;28;20047;-63
2021/01/18 13:30:27;;;;;;;1999.90;999.90;;;;;;;4.41;70.19;101355.72;15675806;28;20064;-62
2021/01/18 13:37:59;;;;;;;1999.90;999.90;;;;;;;4.59;69.95;101357.94;15656504;28;20056;-62
2021/01/18 13:45:32;;;;;;;1999.90;999.90;;;;;;;4.74;69.60;101366.19;15674840;28;20061;-62
2021/01/18 13:53:05;;;;;;;1999.90;999.90;;;;;;;4.71;70.78;101355.69;15657440;28;20091;-62
2021/01/18 14:00:40;;;;;;;1999.90;999.90;;;;;;;4.88;70.39;101344.31;15674834;28;20043;-61
2021/01/18 14:08:12;;;;;;;1999.90;999.90;;;;;;;4.91;70.23;101346.53;15675502;28;20045;-62
2021/01/18 14:15:44;;;;;;;1999.90;999.90;;;;;;;4.68;71.61;101339.66;15714784;28;20497;-62
2021/01/18 14:23:16;;;;;;;1999.90;999.90;;;;;;;4.75;71.54;101334.66;15736915;28;20409;-62
2021/01/18 14:30:48;;;;;;;1999.90;999.90;;;;;;;4.80;71.58;101339.38;15733171;28;20452;-62
2021/01/18 14:38:21;;;;;;;1999.90;999.90;;;;;;;4.80;71.75;101309.78;15722392;28;20045;-63
2021/01/18 14:45:52;;;;;;;1999.90;999.90;;;;;;;4.74;71.99;101302.59;15748178;28;20543;-62
2021/01/18 14:53:24;;;;;;;1999.90;999.90;;;;;;;4.77;72.33;101306.75;15667269;28;20108;-62
2021/01/18 15:00:57;;;;;;;1999.90;999.90;;;;;;;4.88;71.71;101300.91;15693614;28;20095;-63
2021/01/18 15:08:29;;;;;;;1999.90;999.90;;;;;;;4.89;72.71;101298.97;15645446;28;20524;-63
2021/01/18 15:16:01;;;;;;;1999.90;999.90;;;;;;;4.71;73.52;101299.59;15693493;28;20076;-63
2021/01/18 15:23:34;;;;;;;1999.90;999.90;;;;;;;4.57;74.67;101291.84;15671780;28;20091;-63
2021/01/18 15:31:06;;;;;;;1999.90;999.90;;;;;;;4.70;74.75;101290.47;15665232;28;20044;-62
2021/01/18 15:38:41;;;;;;;1999.90;999.90;;;;;;;4.72;75.32;101285.47;15708908;28;20135;-63
2021/01/18 15:46:14;;;;;;;1999.90;999.90;;;;;;;4.38;76.13;101285.25;15680128;28;20052;-63
2021/01/18 15:53:47;;;;;;;1999.90;999.90;;;;;;;4.48;76.08;101276.97;15679426;28;20045;-62
2021/01/18 16:01:19;;;;;;;1999.90;999.90;;;;;;;4.39;76.72;101267.56;15688215;28;20390;-64
2021/01/18 16:08:53;;;;;;;1999.90;999.90;;;;;;;4.42;76.58;101269.78;15663287;28;20041;-62
2021/01/18 16:16:25;;;;;;;;;;;;;;;4.46;76.81;101254.28;15658452;28;20033;-62
2021/01/18 16:23:58;;;;;;;1999.90;999.90;;;;;;;4.27;76.57;101255.97;15690195;28;19925;-61
2021/01/18 16:31:31;;;;;;;;;;;;;;;4.61;75.87;101253.44;15674473;28;20074;-61
2021/01/18 16:39:06;;;;;;;1999.90;999.90;;;;;;;4.51;75.88;101259.81;15610532;28;19975;-63
2021/01/18 16:46:38;;;;;;;1999.90;999.90;;;;;;;4.35;76.77;101247.94;15664937;28;20048;-61
2021/01/18 16:54:11;;;;;;;1999.90;999.90;;;;;;;4.00;77.71;101250.75;15659719;28;20041;-62
2021/01/18 17:01:43;;;;;;;1999.90;999.90;;;;;;;4.24;77.60;101239.94;15638355;28;20041;-60
2021/01/18 17:09:18;;;;;;;1999.90;999.90;;;;;;;4.40;76.75;101233.31;15657068;28;20042;-61
2021/01/18 17:16:54;;;;;;;1999.90;999.90;;;;;;;4.50;76.35;101236.03;15664552;28;20050;-62
2021/01/18 17:24:26;;;;;;;1999.90;999.90;;;;;;;4.38;77.02;101226.38;15646232;28;20072;-61
2021/01/18 17:31:58;;;;;;;1999.90;999.90;;;;;;;4.52;76.58;101230.22;15664786;28;20037;-63
2021/01/18 17:39:33;;;;;;;1999.90;999.90;;;;;;;4.24;77.30;101224.19;15659691;28;20505;-60
2021/01/18 17:47:05;;;;;;;1999.90;999.90;;;;;;;4.25;78.06;101211.22;15621474;28;20514;-62
2021/01/18 17:54:38;;;;;;;1999.90;999.90;;;;;;;4.39;77.81;101204.00;15646129;28;20073;-61
2021/01/18 18:02:12;;;;;;;1999.90;999.90;;;;;;;4.40;78.11;101191.84;15642469;28;20195;-62
2021/01/18 18:09:45;;;;;;;1999.90;999.90;;;;;;;4.59;77.13;101192.91;15655601;28;20401;-63
2021/01/18 18:17:18;;;;;;;1999.90;999.90;;;;;;;4.35;78.01;101195.44;15623796;28;20071;-64
2021/01/18 18:24:52;;;;;;;;;;;;;;;4.81;76.67;101194.47;15666954;28;20041;-65
2021/01/18 18:32:24;;;;;;;1999.90;999.90;;;;;;;4.51;77.71;101189.88;15644410;28;19928;-62
2021/01/18 18:39:57;;;;;;;1999.90;999.90;;;;;;;4.44;78.50;101198.47;15657360;28;20128;-64
2021/01/18 18:47:29;;;;;;;1999.90;999.90;;;;;;;4.48;78.21;101188.53;15637442;28;20103;-62
2021/01/18 18:55:01;;;;;;;1999.90;999.90;;;;;;;4.62;78.01;101180.44;15614218;28;20506;-63
2021/01/18 19:02:33;;;;;;;1999.90;999.90;;;;;;;4.38;78.25;101166.44;15635198;28;20065;-63
2021/01/18 19:10:07;;;;;;;1999.90;999.90;;;;;;;4.48;78.10;101169.19;15615623;28;20049;-63
2021/01/18 19:17:39;;;;;;;1999.90;999.90;;;;;;;4.56;78.09;101170.50;15700472;28;20049;-63
2021/01/18 19:25:12;;;;;;;1999.90;999.90;;;;;;;4.28;78.59;101159.00;15636501;28;20052;-63
2021/01/18 19:32:44;;;;;;;1999.90;999.90;;;;;;;4.33;78.45;101160.91;15635872;28;20038;-62
2021/01/18 19:40:17;;;;;;;1999.90;999.90;;;;;;;4.33;78.20;101160.91;15674451;28;20045;-62
2021/01/18 19:47:48;;;;;;;1999.90;999.90;;;;;;;4.22;78.82;101165.63;15703100;28;20048;-62
2021/01/18 19:55:21;;;;;;;1999.90;999.90;;;;;;;4.08;78.90;101158.22;15725445;28;20049;-56
2021/01/18 20:02:53;;;;;;;1999.90;999.90;;;;;;;4.15;79.04;101158.75;15720004;28;20418;-60
2021/01/18 20:10:26;;;;;;;1999.90;999.90;;;;;;;4.41;77.91;101160.34;15674471;28;20045;-63
2021/01/18 20:17:58;;;;;;;1999.90;999.90;;;;;;;4.45;78.03;101158.66;15664021;28;20037;-63
2021/01/18 20:25:31;;;;;;;1999.90;999.90;;;;;;;4.16;78.98;101150.16;15660261;28;20201;-61
2021/01/18 20:33:03;;;;;;;1999.90;999.90;;;;;;;4.46;77.96;101157.56;15746753;28;20041;-60
2021/01/18 20:40:36;;;;;;;1999.90;999.90;;;;;;;4.50;78.42;101152.31;15719109;28;20045;-63
2021/01/18 20:48:08;;;;;;;1999.90;999.90;;;;;;;4.27;78.46;101146.31;15666281;28;20116;-64
2021/01/18 20:55:42;;;;;;;1999.90;999.90;;;;;;;4.49;78.40;101148.72;15610412;28;20045;-64
2021/01/18 21:03:14;;;;;;;;;;;;;;;4.80;76.85;101143.06;15620763;28;20453;-65
2021/01/18 21:10:47;;;;;;;1999.90;999.90;;;;;;;4.93;77.13;101142.44;15604758;28;19932;-64
2021/01/18 21:18:19;;;;;;;1999.90;999.90;;;;;;;4.99;76.58;101138.50;15675202;28;20097;-64
2021/01/18 21:25:55;;;;;;;1999.90;999.90;;;;;;;4.90;77.24;101123.66;15680964;28;20119;-62
2021/01/18 21:33:29;;;;;;;1999.90;999.90;;;;;;;4.78;77.83;101134.19;15678836;28;20522;-63
2021/01/18 21:41:01;;;;;;;1999.90;999.90;;;;;;;4.80;78.17;101126.47;15643707;28;20053;-64
2021/01/18 21:48:33;;;;;;;1999.90;999.90;;;;;;;5.15;76.75;101134.53;15628000;28;20525;-62
2021/01/18 21:56:06;;;;;;;1999.90;999.90;;;;;;;5.04;77.48;101132.97;15640515;28;20049;-62
2021/01/18 22:03:39;;;;;;;1999.90;999.90;;;;;;;5.10;78.25;101140.09;15647787;28;20063;-60
2021/01/18 22:11:12;;;;;;;1999.90;999.90;;;;;;;5.07;78.45;101137.09;15653082;28;20121;-62
2021/01/18 22:18:44;;;;;;;1999.90;999.90;;;;;;;5.44;76.98;101134.63;15635978;28;20056;-60
2021/01/18 22:26:19;;;;;;;1999.90;999.90;;;;;;;5.41;76.88;101128.81;15651478;28;20102;-61
2021/01/18 22:33:51;;;;;;;1999.90;999.90;;;;;;;5.49;76.03;101136.50;15641390;28;20038;-60
2021/01/18 22:41:23;;;;;;;1999.90;999.90;;;;;;;5.51;77.36;101129.56;15657030;28;20238;-59
2021/01/18 22:48:55;;;;;;;1999.90;999.90;;;;;;;5.51;76.21;101140.63;15657119;28;20132;-60
2021/01/18 22:56:28;;;;;;;1999.90;999.90;;;;;;;5.30;76.93;101127.25;15634953;28;20144;-62
2021/01/18 23:04:01;;;;;;;1999.90;999.90;;;;;;;5.29;76.84;101117.28;15660112;28;20418;-60
2021/01/18 23:11:37;;;;;;;1999.90;999.90;;;;;;;5.19;77.73;101134.78;15670076;28;20132;-59
2021/01/18 23:19:11;;;;;;;1999.90;999.90;;;;;;;4.98;77.71;101113.91;15628772;28;20051;-62
2021/01/18 23:26:44;;;;;;;1999.90;999.90;;;;;;;5.19;77.46;101112.66;15649362;28;20487;-60
2021/01/18 23:34:16;;;;;;;1999.90;999.90;;;;;;;5.26;76.51;101110.41;15630176;28;20045;-62
2021/01/18 23:41:49;;;;;;;1999.90;999.90;;;;;;;5.44;75.77;101108.88;15621757;28;20049;-62
2021/01/18 23:49:20;;;;;;;1999.90;999.90;;;;;;;5.27;76.22;101097.38;15637523;28;20462;-60
2021/01/18 23:56:53;;;;;;;1999.90;999.90;;;;;;;5.25;76.26;101099.63;15666445;28;20052;-60
